Time;durP1;ratioP1;P1;durP2;ratioP2;P2;SDS_P1;SDS_P2;PMS_P1;PMS_P2;Temp;Humidity;BMP_temperature;BMP_pressure;BME280_temperature;BME280_humidity;BME280_pressure;Samples;Min_cycle;Max_cycle;Signal;HPM_P1;HPM_P2
2023/01/13 00:00:35;;;;;;;13.82;9.52;;;;;;;15.20;52.59;100605.16;5112611;28;20051;-58
2023/01/13 00:03:03;;;;;;;13.30;9.75;;;;;;;15.17;52.44;100612.47;5112815;28;20055;-58
2023/01/13 00:05:34;;;;;;;13.25;9.50;;;;;;;15.14;52.64;100611.81;5112649;28;20046;-59
2023/01/13 00:08:03;;;;;;;14.88;9.65;;;;;;;15.11;52.64;100612.06;5112533;28;20040;-59
2023/01/13 00:10:32;;;;;;;13.52;9.75;;;;;;;15.08;52.52;100606.91;5112496;28;20039;-59
2023/01/13 00:13:04;;;;;;;14.75;9.65;;;;;;;15.05;52.28;100607.13;5112396;28;20047;-59
2023/01/13 00:15:33;;;;;;;14.65;9.85;;;;;;;15.03;52.45;100607.25;5112510;28;20118;-59
2023/01/13 00:18:01;;;;;;;14.38;9.57;;;;;;;15.00;52.28;100606.63;5112366;28;20123;-58
2023/01/13 00:20:29;;;;;;;14.25;9.50;;;;;;;14.96;52.52;100605.09;5112474;28;20044;-59
2023/01/13 00:22:58;;;;;;;13.40;9.23;;;;;;;14.94;52.24;100596.31;5094060;28;20047;-59
2023/01/13 00:25:27;;;;;;;14.27;9.30;;;;;;;14.91;52.43;100593.84;5093987;28;20059;-58
2023/01/13 00:27:55;;;;;;;12.35;9.05;;;;;;;14.88;52.25;100592.25;5112043;28;20051;-59
2023/01/13 00:30:24;;;;;;;12.90;9.02;;;;;;;14.85;52.37;100587.09;5112223;28;20396;-60
2023/01/13 00:32:53;;;;;;;15.23;10.00;;;;;;;14.82;52.22;100587.31;5112247;28;20054;-59
2023/01/13 00:35:21;;;;;;;11.98;8.63;;;;;;;14.79;52.02;100599.16;5112134;28;20432;-58
2023/01/13 00:37:49;;;;;;;12.57;8.75;;;;;;;14.76;52.18;100593.97;5093708;28;20130;-58
2023/01/13 00:40:17;;;;;;;13.70;9.30;;;;;;;14.74;52.14;100598.59;5112235;28;20050;-58
2023/01/13 00:45:33;;;;;;;12.65;8.85;;;;;;;14.69;52.22;100602.59;5112030;28;20473;-59
2023/01/13 00:48:01;;;;;;;12.40;9.00;;;;;;;14.67;52.34;100604.53;5112069;28;20075;-58
2023/01/13 00:50:30;;;;;;;11.50;8.43;;;;;;;14.62;52.04;100602.19;5118061;28;20135;-59
2023/01/13 00:53:00;;;;;;;13.10;8.93;;;;;;;14.60;52.20;100598.75;5118900;28;20047;-59
2023/01/13 00:55:30;;;;;;;12.52;8.75;;;;;;;14.58;52.13;100603.38;5118765;28;20073;-59
2023/01/13 00:58:02;;;;;;;13.75;8.88;;;;;;;14.55;52.19;100598.22;5118712;28;20058;-59
2023/01/13 01:00:30;;;;;;;12.73;8.10;;;;;;;14.52;52.37;100599.28;5118752;28;20050;-58
2023/01/13 01:03:00;;;;;;;13.10;8.93;;;;;;;14.50;52.40;100603.06;5118691;28;20487;-59
2023/01/13 01:05:28;;;;;;;11.63;8.43;;;;;;;14.48;52.25;100602.31;5118716;28;20143;-59
2023/01/13 01:07:56;;;;;;;12.70;8.52;;;;;;;14.46;52.14;100596.16;5118876;28;20054;-59
2023/01/13 01:10:25;;;;;;;11.82;8.77;;;;;;;14.43;52.23;100593.69;5118644;28;20048;-59
2023/01/13 01:12:53;;;;;;;12.70;9.00;;;;;;;14.42;52.29;100583.91;5118476;28;20044;-59
2023/01/13 01:15:21;;;;;;;11.50;8.32;;;;;;;14.41;52.27;100592.94;5118548;28;20046;-59
2023/01/13 01:17:49;;;;;;;13.52;8.68;;;;;;;14.37;52.31;100583.38;5118384;28;20051;-59
2023/01/13 01:20:23;;;;;;;11.52;8.18;;;;;;;14.36;52.19;100581.66;5118756;28;20051;-59
2023/01/13 01:22:51;;;;;;;10.68;8.20;;;;;;;14.33;52.05;100580.91;5118480;28;20126;-58
2023/01/13 01:25:22;;;;;;;11.95;8.30;;;;;;;14.31;52.00;100577.50;5118562;28;20104;-59
2023/01/13 01:27:50;;;;;;;11.52;8.05;;;;;;;14.31;52.33;100577.50;5118274;28;20058;-59
2023/01/13 01:30:19;;;;;;;12.10;8.18;;;;;;;14.28;52.33;100577.72;5118367;28;20086;-59
2023/01/13 01:32:47;;;;;;;12.57;8.35;;;;;;;14.26;52.28;100573.41;5099731;28;20061;-59
2023/01/13 01:35:15;;;;;;;12.25;8.52;;;;;;;14.23;52.14;100574.47;5118269;28;20044;-59
2023/01/13 01:37:45;;;;;;;10.63;7.90;;;;;;;14.22;52.02;100578.13;5118427;28;20082;-58
2023/01/13 01:40:14;;;;;;;11.38;8.40;;;;;;;14.21;52.29;100567.50;5118379;28;20426;-59
2023/01/13 01:45:30;;;;;;;10.70;7.90;;;;;;;14.18;51.94;100565.03;5118371;28;20047;-59
2023/01/13 01:48:02;;;;;;;11.05;7.95;;;;;;;14.15;52.04;100559.88;5118535;28;20123;-59
2023/01/13 01:50:31;;;;;;;12.05;8.05;;;;;;;14.13;52.29;100557.31;5118272;28;20047;-59
2023/01/13 01:53:08;;;;;;;10.35;7.68;;;;;;;14.12;52.03;100557.44;5100256;28;20126;-59
2023/01/13 01:55:38;;;;;;;12.63;8.07;;;;;;;14.10;52.06;100565.59;5118206;28;20043;-59
2023/01/13 01:58:11;;;;;;;11.68;7.80;;;;;;;14.08;52.27;100562.13;5099885;28;20063;-58
2023/01/13 02:00:39;;;;;;;10.43;7.50;;;;;;;14.06;52.07;100550.66;5116271;28;20043;-58
2023/01/13 02:03:09;;;;;;;10.88;7.75;;;;;;;14.04;52.11;100552.59;5115014;28;20050;-58
2023/01/13 02:05:38;;;;;;;10.75;7.85;;;;;;;14.02;52.24;100547.34;5115145;28;20097;-58
2023/01/13 02:08:09;;;;;;;10.68;7.78;;;;;;;14.01;51.96;100547.44;5115082;28;20435;-58
2023/01/13 02:10:38;;;;;;;12.43;7.95;;;;;;;13.99;52.05;100546.69;5096446;28;20415;-59
2023/01/13 02:13:10;;;;;;;10.95;7.72;;;;;;;13.99;52.11;100546.69;5114875;28;20067;-58
2023/01/13 02:15:43;;;;;;;9.47;6.83;;;;;;;13.96;52.15;100552.25;5114708;28;20096;-58
2023/01/13 02:18:41;;;;;;;10.93;7.63;;;;;;;13.94;51.99;100556.88;5096326;28;20134;-58
2023/01/13 02:21:35;;;;;;;10.70;7.45;;;;;;;13.91;52.12;100546.38;5114538;28;20043;-59
2023/01/13 02:28:02;;;;;;;11.68;7.43;;;;;;;13.87;52.08;100553.75;5114268;28;20071;-61
2023/01/13 02:33:42;;;;;;;9.77;7.20;;;;;;;13.84;52.18;100529.00;5114473;28;20047;-58
2023/01/13 02:36:20;;;;;;;9.55;7.00;;;;;;;13.83;52.11;100532.63;5096049;28;20047;-58
2023/01/13 02:38:52;;;;;;;9.73;7.22;;;;;;;13.82;51.99;100536.28;5114289;28;20039;-58
2023/01/13 02:44:18;;;;;;;11.45;7.70;;;;;;;13.78;52.09;100540.13;5114214;28;20062;-58
2023/01/13 02:46:52;;;;;;;10.88;7.55;;;;;;;13.75;52.07;100531.34;5114212;28;20050;-60
2023/01/13 02:49:32;;;;;;;9.70;6.93;;;;;;;13.74;52.07;100529.63;5095720;28;20044;-60
2023/01/13 02:52:09;;;;;;;10.20;7.53;;;;;;;13.72;52.08;100528.88;5114065;28;20400;-59
2023/01/13 02:54:42;;;;;;;10.55;7.63;;;;;;;13.72;51.98;100530.69;5113921;28;20055;-60
2023/01/13 02:57:12;;;;;;;10.10;7.77;;;;;;;13.70;51.94;100530.81;5114078;28;20589;-59
2023/01/13 02:59:43;;;;;;;10.90;7.63;;;;;;;13.68;52.12;100524.66;5113818;28;20101;-59
2023/01/13 03:02:16;;;;;;;10.68;8.07;;;;;;;13.68;51.97;100519.31;5113665;28;20122;-59
2023/01/13 03:04:48;;;;;;;;;;;;;;;13.66;52.15;100520.38;5114212;28;20485;-60
2023/01/13 03:07:33;;;;;;;9.85;7.32;;;;;;;13.64;51.94;100520.50;5113629;28;19920;-58
2023/01/13 03:10:10;;;;;;;11.38;7.82;;;;;;;13.61;52.04;100512.69;5113665;28;20464;-58
2023/01/13 03:12:48;;;;;;;10.38;7.50;;;;;;;13.61;51.98;100520.72;5093964;28;20048;-60
2023/01/13 03:15:24;;;;;;;10.57;7.93;;;;;;;13.58;51.92;100512.00;5113528;28;20477;-60
2023/01/13 03:18:02;;;;;;;11.45;7.85;;;;;;;13.57;51.93;100508.47;5113554;28;20055;-60
2023/01/13 03:20:37;;;;;;;10.93;7.32;;;;;;;13.57;52.00;100505.78;5113409;28;20039;-60
2023/01/13 03:23:15;;;;;;;9.60;7.28;;;;;;;13.56;52.01;100508.59;5113183;28;20092;-60
2023/01/13 03:25:51;;;;;;;9.85;6.75;;;;;;;13.53;51.92;100508.81;5113346;28;20052;-59
2023/01/13 03:28:23;;;;;;;10.95;6.93;;;;;;;13.53;52.14;100514.16;5113123;28;20158;-59
2023/01/13 03:30:58;;;;;;;9.43;6.93;;;;;;;13.51;52.00;100505.34;5113307;28;20104;-60
2023/01/13 03:33:32;;;;;;;9.57;6.68;;;;;;;13.47;51.88;100499.34;5113129;28;20501;-57
2023/01/13 03:36:05;;;;;;;10.07;7.28;;;;;;;13.49;51.96;100504.59;5113130;28;20118;-58
2023/01/13 03:38:38;;;;;;;10.55;7.38;;;;;;;13.47;51.91;100499.34;5113126;28;20130;-58
2023/01/13 03:41:09;;;;;;;10.07;7.07;;;;;;;13.45;52.11;100501.28;5094848;28;20452;-60
2023/01/13 03:46:37;;;;;;;10.43;6.97;;;;;;;13.43;52.09;100487.13;5112905;28;20067;-58
2023/01/13 03:49:08;;;;;;;9.38;6.35;;;;;;;13.42;51.96;100496.13;5113016;28;20044;-58
2023/01/13 03:51:42;;;;;;;8.32;6.60;;;;;;;13.40;52.21;100490.00;5112843;28;20113;-58
2023/01/13 03:54:14;;;;;;;9.40;6.57;;;;;;;13.38;52.09;100489.25;5112862;28;20050;-58
2023/01/13 03:56:45;;;;;;;9.93;7.05;;;;;;;13.38;51.83;100489.25;5112572;28;20055;-58
2023/01/13 03:59:18;;;;;;;9.23;6.57;;;;;;;13.36;51.96;100496.53;5112787;28;20446;-58
2023/01/13 04:01:51;;;;;;;8.10;6.05;;;;;;;13.35;51.88;100489.47;5112683;28;20067;-58
2023/01/13 04:04:25;;;;;;;9.68;6.60;;;;;;;13.32;51.88;100501.25;5112726;28;20044;-58
2023/01/13 04:07:03;;;;;;;9.55;7.03;;;;;;;13.31;51.98;100494.16;5112455;28;20079;-58
2023/01/13 04:09:37;;;;;;;10.45;6.80;;;;;;;13.30;51.87;100499.63;5112636;28;20046;-58
2023/01/13 04:12:10;;;;;;;9.95;6.60;;;;;;;13.29;51.99;100508.63;5112530;28;20105;-58
2023/01/13 04:14:39;;;;;;;9.40;6.80;;;;;;;13.28;51.89;100499.72;5112508;28;20043;-58
2023/01/13 04:17:07;;;;;;;8.75;6.07;;;;;;;13.25;51.99;100496.41;5112418;28;20047;-59
2023/01/13 04:19:37;;;;;;;10.27;6.32;;;;;;;13.24;51.86;100494.69;5112367;28;20047;-58
2023/01/13 04:22:06;;;;;;;10.30;7.00;;;;;;;13.24;52.13;100497.38;5112269;28;20048;-58
2023/01/13 04:24:36;;;;;;;9.52;6.25;;;;;;;13.22;52.23;100494.81;5112151;28;20051;-58
2023/01/13 04:27:05;;;;;;;10.10;6.45;;;;;;;13.21;52.16;100503.78;5112230;28;20048;-58
2023/01/13 04:29:33;;;;;;;9.98;6.93;;;;;;;13.20;52.10;100506.56;5112214;28;20051;-58
2023/01/13 04:32:01;;;;;;;9.18;6.50;;;;;;;13.18;52.04;100507.50;5112288;28;20067;-58
2023/01/13 04:34:30;;;;;;;8.88;6.50;;;;;;;13.17;52.27;100502.25;5112184;28;20052;-58
2023/01/13 04:36:59;;;;;;;8.70;5.72;;;;;;;13.16;52.61;100506.75;5112122;28;20054;-58
2023/01/13 04:39:27;;;;;;;8.27;5.50;;;;;;;13.17;53.40;100513.81;5112239;28;20063;-58
2023/01/13 04:41:58;;;;;;;9.35;6.05;;;;;;;13.20;53.50;100509.25;5112126;28;20052;-58
2023/01/13 04:44:26;;;;;;;8.93;5.93;;;;;;;13.26;54.34;100506.16;5112004;28;20071;-59
2023/01/13 04:46:54;;;;;;;8.35;5.82;;;;;;;13.35;54.46;100505.53;5112065;28;20093;-58
2023/01/13 04:49:23;;;;;;;9.07;5.47;;;;;;;13.46;54.63;100511.03;5112110;28;20047;-58
2023/01/13 04:51:51;;;;;;;9.13;5.72;;;;;;;13.58;54.60;100512.88;5111932;28;20047;-58
2023/01/13 04:54:21;;;;;;;8.07;5.25;;;;;;;13.70;54.55;100512.03;5112050;28;20051;-58
2023/01/13 04:56:49;;;;;;;7.25;5.30;;;;;;;13.81;54.37;100513.13;5111810;28;20123;-58
2023/01/13 04:59:17;;;;;;;8.10;5.55;;;;;;;13.91;54.37;100508.84;5093541;28;20043;-60
2023/01/13 05:01:45;;;;;;;7.88;5.70;;;;;;;14.03;54.18;100507.97;5112082;28;20100;-59
2023/01/13 05:04:14;;;;;;;7.85;5.15;;;;;;;14.14;54.25;100515.25;5111945;28;20054;-60
2023/01/13 05:06:42;;;;;;;7.50;5.28;;;;;;;14.23;53.99;100507.41;5111807;28;20055;-58
2023/01/13 05:09:12;;;;;;;7.00;5.13;;;;;;;14.35;53.87;100508.34;5111898;28;20396;-58
2023/01/13 05:17:19;;;;;;;6.72;5.03;;;;;;;14.66;53.65;100507.00;5111790;28;20083;-58
2023/01/13 05:19:47;;;;;;;7.45;5.00;;;;;;;14.75;53.46;100517.09;5111690;28;20054;-59
2023/01/13 05:27:49;;;;;;;8.20;5.28;;;;;;;15.07;53.31;100514.72;5111342;28;20052;-58
2023/01/13 05:30:22;;;;;;;7.82;5.30;;;;;;;15.17;53.00;100522.94;5111638;28;20039;-59
2023/01/13 05:32:50;;;;;;;7.32;4.93;;;;;;;15.24;53.02;100524.19;5111620;28;20044;-60
2023/01/13 05:35:18;;;;;;;6.63;4.78;;;;;;;15.32;53.37;100527.16;5111559;27;20530;-58
2023/01/13 05:37:47;;;;;;;8.68;5.07;;;;;;;15.35;52.74;100526.94;5115368;28;20070;-58
2023/01/13 05:43:21;;;;;;;6.88;4.80;;;;;;;15.40;52.95;100523.88;5115112;28;20044;-58
2023/01/13 05:45:51;;;;;;;7.97;5.28;;;;;;;15.41;52.90;100515.69;5115290;28;21052;-58
2023/01/13 05:48:21;;;;;;;6.97;5.20;;;;;;;15.44;52.92;100519.97;5115184;28;20101;-58
2023/01/13 05:50:50;;;;;;;6.47;4.70;;;;;;;15.45;52.90;100519.88;5115038;28;20036;-58
2023/01/13 05:53:18;;;;;;;6.78;4.90;;;;;;;15.48;52.80;100526.00;5115065;28;20046;-59
2023/01/13 05:55:46;;;;;;;8.20;4.93;;;;;;;15.50;52.83;100519.53;5114890;28;20040;-59
2023/01/13 05:58:17;;;;;;;7.20;4.82;;;;;;;15.56;52.78;100518.22;5114998;28;20044;-60
2023/01/13 06:00:46;;;;;;;8.35;4.97;;;;;;;15.62;52.68;100524.00;5114955;28;20048;-60
2023/01/13 06:03:15;;;;;;;7.00;4.70;;;;;;;15.66;52.67;100519.25;5114804;28;20047;-57
2023/01/13 06:05:43;;;;;;;7.45;4.65;;;;;;;15.67;52.67;100520.97;5114817;28;20051;-59
2023/01/13 06:08:12;;;;;;;7.10;4.75;;;;;;;15.68;52.56;100525.34;5114773;28;20147;-58
2023/01/13 06:10:41;;;;;;;8.55;5.22;;;;;;;15.66;52.63;100530.00;5114849;28;20447;-58
2023/01/13 06:13:09;;;;;;;6.72;4.85;;;;;;;15.65;52.58;100523.78;5114647;28;20480;-59
2023/01/13 06:15:38;;;;;;;7.35;5.07;;;;;;;15.63;52.73;100524.84;5114701;28;20086;-58
2023/01/13 06:18:06;;;;;;;6.25;4.63;;;;;;;15.58;52.74;100521.63;5114246;28;20488;-58
2023/01/13 06:20:35;;;;;;;6.97;5.00;;;;;;;15.55;52.63;100541.56;5111840;28;20130;-59
2023/01/13 06:23:03;;;;;;;6.65;4.95;;;;;;;15.51;52.87;100529.31;5095112;28;20504;-58
2023/01/13 06:25:40;;;;;;;5.95;4.57;;;;;;;15.48;52.69;100526.00;5094006;28;20058;-60
2023/01/13 06:28:09;;;;;;;6.82;4.90;;;;;;;15.42;52.72;100528.16;5093811;28;20060;-59
2023/01/13 06:30:42;;;;;;;6.00;4.72;;;;;;;15.38;52.90;100534.75;5075817;28;20396;-60
2023/01/13 06:33:13;;;;;;;7.10;4.78;;;;;;;15.33;52.85;100531.56;5095148;28;20460;-59
2023/01/13 06:35:44;;;;;;;6.00;4.28;;;;;;;15.29;52.82;100532.78;5114169;28;20050;-59
2023/01/13 06:38:17;;;;;;;6.45;4.55;;;;;;;15.24;52.91;100526.88;5114096;28;20059;-59
2023/01/13 06:40:45;;;;;;;5.95;4.50;;;;;;;15.21;52.82;100528.94;5113749;28;20504;-58
2023/01/13 06:43:15;;;;;;;6.93;4.78;;;;;;;15.15;52.89;100531.13;5113977;28;20401;-59
2023/01/13 06:45:49;;;;;;;6.65;4.82;;;;;;;15.12;52.87;100535.84;5100515;28;20060;-59
2023/01/13 06:48:18;;;;;;;7.10;4.95;;;;;;;15.07;52.73;100538.03;5093159;28;20083;-60
2023/01/13 06:50:47;;;;;;;6.88;5.20;;;;;;;15.03;52.72;100542.75;5093164;28;20044;-60
2023/01/13 06:53:15;;;;;;;7.20;4.78;;;;;;;14.98;52.80;100538.72;5102134;28;20047;-59
2023/01/13 06:55:43;;;;;;;7.55;5.00;;;;;;;14.95;52.71;100549.66;5093278;28;20119;-59
2023/01/13 06:58:11;;;;;;;7.63;5.22;;;;;;;14.90;52.67;100544.66;5075062;28;20511;-59
2023/01/13 07:00:39;;;;;;;7.18;4.75;;;;;;;14.86;52.55;100546.72;5093465;28;20054;-59
2023/01/13 07:03:11;;;;;;;6.30;4.65;;;;;;;14.80;52.65;100544.47;5093260;28;20401;-59
2023/01/13 07:05:40;;;;;;;7.72;5.20;;;;;;;14.77;52.50;100547.38;5093211;28;20040;-59
2023/01/13 07:08:10;;;;;;;6.53;4.82;;;;;;;14.73;52.61;100551.25;5093235;28;20048;-59
2023/01/13 07:10:38;;;;;;;7.47;5.00;;;;;;;14.70;52.53;100548.78;5093089;28;20050;-59
2023/01/13 07:15:56;;;;;;;7.55;5.25;;;;;;;14.64;52.37;100557.28;5093003;28;20078;-59
2023/01/13 07:18:27;;;;;;;7.60;5.38;;;;;;;14.60;52.54;100562.03;5093068;28;20504;-58
2023/01/13 07:20:57;;;;;;;6.65;4.97;;;;;;;14.56;52.35;100551.59;5092944;28;20102;-58
2023/01/13 07:23:26;;;;;;;7.38;5.00;;;;;;;14.53;52.25;100550.00;5092813;28;20502;-58
2023/01/13 07:25:55;;;;;;;7.13;4.95;;;;;;;14.49;52.40;100543.16;5098223;28;20554;-58
2023/01/13 07:28:24;;;;;;;7.97;5.47;;;;;;;14.48;52.22;100554.00;5092729;28;20052;-58
2023/01/13 07:30:52;;;;;;;7.93;5.22;;;;;;;14.45;52.17;100554.19;5074487;28;20052;-58
2023/01/13 07:33:21;;;;;;;8.20;4.80;;;;;;;14.43;52.34;100554.28;5092512;28;20078;-59
2023/01/13 07:35:56;;;;;;;6.75;4.68;;;;;;;14.41;52.10;100555.38;5092717;28;20473;-58
2023/01/13 07:38:25;;;;;;;7.60;5.10;;;;;;;14.38;52.44;100560.94;5092732;28;20108;-59
2023/01/13 07:40:53;;;;;;;7.43;5.03;;;;;;;14.36;52.54;100547.63;5111823;28;20047;-60
2023/01/13 07:43:32;;;;;;;8.23;5.40;;;;;;;14.36;52.83;100553.00;5112840;28;20048;-60
2023/01/13 07:46:03;;;;;;;8.30;5.22;;;;;;;14.40;53.34;100559.03;5112813;28;20076;-59
2023/01/13 07:48:34;;;;;;;6.95;4.70;;;;;;;14.46;53.40;100562.13;5112578;28;20115;-60
2023/01/13 07:51:06;;;;;;;6.40;4.85;;;;;;;14.53;53.41;100566.09;5112777;28;20554;-59
2023/01/13 07:53:34;;;;;;;7.10;4.72;;;;;;;14.62;53.26;100564.59;5112665;28;20404;-59
2023/01/13 07:56:04;;;;;;;6.85;4.93;;;;;;;14.64;53.20;100562.66;5111859;28;20099;-60
2023/01/13 07:58:34;;;;;;;6.80;4.53;;;;;;;14.70;53.20;100551.47;5111831;28;20049;-59
2023/01/13 08:01:07;;;;;;;7.65;4.72;;;;;;;14.76;53.00;100561.75;5094229;28;20054;-58
2023/01/13 08:03:35;;;;;;;7.18;4.93;;;;;;;14.81;52.92;100564.97;5094393;28;20070;-58
2023/01/13 08:06:06;;;;;;;7.32;5.05;;;;;;;14.87;52.77;100574.44;5112601;28;20108;-58
2023/01/13 08:08:34;;;;;;;6.80;4.72;;;;;;;14.89;52.75;100572.47;5112413;28;20051;-58
2023/01/13 08:11:05;;;;;;;7.75;5.10;;;;;;;14.92;52.70;100579.44;5112382;28;20122;-58
2023/01/13 08:13:33;;;;;;;6.55;4.35;;;;;;;14.91;52.70;100581.28;5112253;28;20046;-58
2023/01/13 08:16:03;;;;;;;7.05;4.68;;;;;;;14.91;52.63;100583.09;5112269;28;20060;-58
2023/01/13 08:18:32;;;;;;;7.28;4.60;;;;;;;14.87;52.67;100580.66;5112318;28;20131;-58
2023/01/13 08:21:02;;;;;;;7.40;4.95;;;;;;;14.86;52.70;100578.06;5112358;28;20116;-59
2023/01/13 08:23:32;;;;;;;7.07;4.95;;;;;;;14.84;52.68;100586.22;5112313;28;20067;-58
2023/01/13 08:26:01;;;;;;;7.45;5.10;;;;;;;14.79;52.55;100582.19;5111974;28;20071;-59
2023/01/13 08:28:31;;;;;;;7.25;4.80;;;;;;;14.78;52.56;100592.06;5112043;28;20519;-60
2023/01/13 08:31:00;;;;;;;7.97;4.85;;;;;;;14.74;52.67;100595.91;5112385;28;20519;-57
2023/01/13 08:33:29;;;;;;;7.38;4.88;;;;;;;14.73;52.68;100598.72;5112560;28;20047;-57
2023/01/13 08:35:57;;;;;;;7.68;5.05;;;;;;;14.70;52.69;100597.13;5111890;28;20500;-59
2023/01/13 08:38:25;;;;;;;6.68;4.65;;;;;;;14.67;52.70;100597.34;5112017;28;20044;-58
2023/01/13 08:40:55;;;;;;;6.22;4.50;;;;;;;14.63;52.64;100595.84;5111922;28;20116;-58
2023/01/13 08:43:23;;;;;;;7.03;4.93;;;;;;;14.62;52.65;100595.94;5111962;28;20044;-58
2023/01/13 08:45:59;;;;;;;7.78;4.70;;;;;;;14.58;52.65;100598.00;5111775;28;20035;-58
2023/01/13 08:48:28;;;;;;;6.78;4.90;;;;;;;14.53;52.66;100594.78;5111840;28;20067;-58
2023/01/13 08:51:03;;;;;;;8.27;5.38;;;;;;;14.52;52.54;100595.75;5111924;28;20044;-59
2023/01/13 08:53:31;;;;;;;6.88;4.43;;;;;;;14.49;52.63;100602.19;5111769;28;20407;-59
2023/01/13 08:56:01;;;;;;;6.32;4.80;;;;;;;14.47;52.62;100597.88;5093533;28;20131;-59
2023/01/13 08:58:29;;;;;;;7.13;4.75;;;;;;;14.45;52.62;100602.50;5093457;28;20043;-59
2023/01/13 09:00:57;;;;;;;6.43;4.60;;;;;;;14.41;52.63;100601.84;5093572;28;20048;-59
2023/01/13 09:03:26;;;;;;;6.85;4.70;;;;;;;14.39;52.59;100606.47;5111819;28;20485;-58
2023/01/13 09:05:54;;;;;;;6.68;4.70;;;;;;;14.37;52.72;100599.47;5111566;28;20039;-59
2023/01/13 09:08:22;;;;;;;6.88;5.18;;;;;;;14.34;52.63;100597.88;5111824;28;20368;-58
2023/01/13 09:10:50;;;;;;;6.57;4.40;;;;;;;14.31;52.56;100600.78;5114228;28;20051;-60
2023/01/13 09:13:20;;;;;;;7.00;4.75;;;;;;;14.28;52.43;100599.19;5116019;28;20559;-59
2023/01/13 09:15:48;;;;;;;8.05;4.90;;;;;;;14.26;52.33;100611.81;5097562;28;20040;-59
2023/01/13 09:18:16;;;;;;;7.05;4.70;;;;;;;14.23;52.46;100611.19;5115706;28;20062;-58
2023/01/13 09:20:44;;;;;;;6.90;4.60;;;;;;;14.20;52.37;100606.91;5097561;28;20071;-59
2023/01/13 09:23:13;;;;;;;6.28;4.35;;;;;;;14.19;52.29;100610.56;5115626;28;20097;-59
2023/01/13 09:25:41;;;;;;;6.63;4.78;;;;;;;14.16;52.25;100602.69;5097041;28;20052;-61
2023/01/13 09:28:09;;;;;;;6.82;4.65;;;;;;;14.15;52.44;100600.97;5115553;28;20044;-59
2023/01/13 09:30:38;;;;;;;6.15;4.53;;;;;;;14.10;52.41;100600.47;5115596;28;20043;-59
2023/01/13 09:35:52;;;;;;;6.55;4.60;;;;;;;14.06;52.34;100601.63;5115633;28;20040;-58
2023/01/13 09:38:20;;;;;;;6.95;4.78;;;;;;;14.05;52.44;100613.31;5115326;28;20112;-59
2023/01/13 09:40:49;;;;;;;6.75;4.72;;;;;;;14.03;52.25;100604.53;5115456;28;20123;-58
2023/01/13 09:49:02;;;;;;;6.80;4.50;;;;;;;13.95;52.33;100598.81;5114381;28;20488;-59
2023/01/13 09:51:36;;;;;;;7.25;4.80;;;;;;;13.91;52.50;100595.50;5114985;28;20078;-59
2023/01/13 09:54:12;;;;;;;6.40;4.40;;;;;;;13.89;52.27;100596.53;5114992;28;20063;-59
2023/01/13 09:56:40;;;;;;;6.68;4.57;;;;;;;13.88;52.41;100594.84;5114932;28;20039;-61
2023/01/13 09:59:11;;;;;;;7.15;4.68;;;;;;;13.85;52.27;100600.41;5114938;28;20488;-59
2023/01/13 10:01:48;;;;;;;7.88;5.00;;;;;;;13.83;52.26;100602.34;5114758;28;20047;-59
2023/01/13 10:04:16;;;;;;;7.80;4.85;;;;;;;13.81;52.01;100598.91;5114809;28;20043;-59
2023/01/13 10:06:48;;;;;;;6.60;4.43;;;;;;;13.78;51.96;100591.06;5114619;28;20126;-59
2023/01/13 10:09:22;;;;;;;8.00;4.88;;;;;;;13.76;52.01;100591.16;5114825;28;20044;-59
2023/01/13 10:14:45;;;;;;;8.10;5.68;;;;;;;13.71;52.04;100588.81;5114496;28;20128;-60
2023/01/13 10:17:28;;;;;;;8.03;5.17;;;;;;;13.70;52.06;100595.16;5114457;28;20043;-60
2023/01/13 10:20:12;;;;;;;7.18;4.80;;;;;;;13.68;51.82;100593.50;5096306;28;20465;-60
2023/01/13 10:22:53;;;;;;;6.93;5.05;;;;;;;13.65;51.85;100591.03;5113836;28;20040;-59
2023/01/13 10:25:27;;;;;;;7.63;5.25;;;;;;;13.63;51.84;100592.97;5114193;28;20048;-59
2023/01/13 10:28:07;;;;;;;7.15;4.78;;;;;;;13.60;51.88;100595.84;5114012;28;20056;-59
2023/01/13 10:30:39;;;;;;;6.70;4.93;;;;;;;13.58;51.71;100595.94;5114188;28;20141;-58
2023/01/13 10:33:12;;;;;;;5.95;4.43;;;;;;;13.56;51.90;100592.53;5114044;28;20198;-58
2023/01/13 10:35:56;;;;;;;7.63;5.05;;;;;;;13.55;51.98;100593.50;5113962;28;20040;-58
2023/01/13 10:38:27;;;;;;;7.20;5.18;;;;;;;13.52;51.89;100588.34;5113963;28;20067;-58
2023/01/13 10:40:57;;;;;;;8.07;5.05;;;;;;;13.51;51.84;100578.59;5095992;28;20051;-58
2023/01/13 10:43:27;;;;;;;7.63;4.95;;;;;;;13.49;51.89;100572.44;5114033;28;20050;-58
2023/01/13 10:46:05;;;;;;;8.00;5.45;;;;;;;13.49;51.88;100564.41;5114167;28;20112;-58
2023/01/13 10:48:42;;;;;;;9.77;5.75;;;;;;;13.47;52.00;100569.00;5113940;28;20047;-59
2023/01/13 10:51:25;;;;;;;7.82;5.07;;;;;;;13.46;51.99;100564.63;5114057;28;20043;-59
2023/01/13 10:53:57;;;;;;;7.85;5.35;;;;;;;13.44;52.05;100566.56;5095766;28;20078;-59
2023/01/13 10:56:28;;;;;;;6.85;4.82;;;;;;;13.42;52.29;100555.09;5113879;28;20049;-58
2023/01/13 10:59:14;;;;;;;6.65;4.95;;;;;;;13.42;52.26;100549.72;5113799;28;20040;-58
2023/01/13 11:01:53;;;;;;;8.63;5.53;;;;;;;13.40;52.27;100533.72;5114005;28;20128;-58
2023/01/13 11:04:29;;;;;;;8.15;4.90;;;;;;;13.41;52.31;100547.97;5095466;28;20139;-58
2023/01/13 11:06:58;;;;;;;7.38;5.20;;;;;;;13.39;51.92;100536.50;5113596;28;20043;-58
2023/01/13 11:09:29;;;;;;;8.73;5.57;;;;;;;13.39;52.22;100539.19;5095250;28;20112;-58
2023/01/13 11:11:58;;;;;;;9.10;5.80;;;;;;;13.36;52.16;100534.91;5113700;28;20055;-58
2023/01/13 11:14:38;;;;;;;8.40;5.80;;;;;;;13.34;51.97;100528.81;5113657;28;20043;-58
2023/01/13 11:17:21;;;;;;;8.30;5.70;;;;;;;13.34;52.21;100533.31;5113436;28;20047;-58
2023/01/13 11:19:58;;;;;;;8.55;5.75;;;;;;;13.32;52.02;100527.19;5113319;28;20047;-58
2023/01/13 11:22:32;;;;;;;7.68;5.28;;;;;;;13.31;51.94;100520.09;5113276;28;20044;-58
2023/01/13 11:25:02;;;;;;;8.77;5.93;;;;;;;13.29;52.11;100514.84;5113369;28;20043;-58
2023/01/13 11:27:40;;;;;;;8.32;5.40;;;;;;;13.29;52.05;100511.31;5113071;28;20040;-58
2023/01/13 11:30:22;;;;;;;7.85;5.30;;;;;;;13.28;52.19;100514.94;5113229;28;20415;-58
2023/01/13 11:33:03;;;;;;;8.13;5.60;;;;;;;13.26;52.25;100511.53;5112775;28;20044;-58
2023/01/13 11:35:40;;;;;;;7.93;5.47;;;;;;;13.24;52.37;100513.44;5113037;28;20385;-59
2023/01/13 11:38:14;;;;;;;7.65;5.22;;;;;;;13.24;52.26;100513.44;5094490;28;20142;-57
2023/01/13 11:40:48;;;;;;;8.48;5.40;;;;;;;13.23;52.11;100512.59;5112890;28;20340;-59
2023/01/13 11:43:29;;;;;;;7.07;5.43;;;;;;;13.23;52.46;100511.75;5112842;28;20047;-59
2023/01/13 11:45:59;;;;;;;8.60;5.68;;;;;;;13.21;52.32;100514.50;5112639;28;20043;-60
2023/01/13 11:48:30;;;;;;;8.63;5.55;;;;;;;13.20;52.47;100504.75;5112752;28;20381;-57
2023/01/13 11:51:10;;;;;;;8.73;5.75;;;;;;;13.21;52.37;100508.28;5112647;28;20476;-58
2023/01/13 11:53:58;;;;;;;9.45;6.32;;;;;;;13.18;52.42;100499.47;5112486;28;20234;-60
2023/01/13 11:56:50;;;;;;;8.77;5.85;;;;;;;13.16;52.38;100485.31;5112564;28;20078;-58
2023/01/13 11:59:39;;;;;;;8.90;6.22;;;;;;;13.15;52.41;100474.72;5112671;28;20062;-58
2023/01/13 12:02:21;;;;;;;9.68;5.97;;;;;;;13.14;52.35;100471.19;5112577;28;20078;-59
2023/01/13 12:04:59;;;;;;;8.45;5.82;;;;;;;13.11;52.61;100455.28;5112285;28;20058;-58
2023/01/13 12:07:42;;;;;;;10.32;6.72;;;;;;;13.12;52.46;100454.38;5112246;28;20078;-58
2023/01/13 12:10:24;;;;;;;8.98;6.38;;;;;;;13.11;52.35;100452.63;5094154;28;20059;-57
2023/01/13 12:13:00;;;;;;;8.48;5.80;;;;;;;13.10;52.41;100442.88;5112415;28;20134;-58
2023/01/13 12:15:40;;;;;;;8.13;6.03;;;;;;;13.08;52.31;100438.59;5112335;28;20047;-58
2023/01/13 12:18:30;;;;;;;11.20;6.60;;;;;;;13.07;52.43;100437.72;5093727;28;20412;-57
2023/01/13 12:21:20;;;;;;;8.68;5.95;;;;;;;13.06;52.54;100441.38;5093509;28;20105;-58
2023/01/13 12:24:04;;;;;;;8.32;5.68;;;;;;;13.06;52.82;100424.44;5112216;28;20047;-57
2023/01/13 12:26:35;;;;;;;9.10;5.60;;;;;;;13.08;53.00;100434.09;5111949;28;20122;-57
2023/01/13 12:29:07;;;;;;;8.60;5.93;;;;;;;13.13;53.50;100431.13;5112041;28;20070;-59
2023/01/13 12:31:38;;;;;;;7.88;5.85;;;;;;;13.21;53.77;100433.28;5112354;28;20054;-61